Luverne, Alabama
Current Conditions -  °F | °C
As of 11:53 AM on Thursday 18 Dec 2014 (Local Time) from KTOI Reporting Station
Broken Clouds Broken Clouds  
Wind Chill: 14°   Ceiling: 12000
Heat Index: 14°   Visibility: 10mi
Dew Point: -2°   Wind: 0mph
Humidity: 32%   Direction: NA
Pressure: 30.16"   Gusts: NA
Location:  31.72°N, 86.26°W
Report Text: KTOI 181753Z AUTO 00000KT 10SM BKN120 14/M02 A3016 RMK AO2 SLP213 T01441022 10150 20017 58021
Loading
Personal Weather Stations






























Interactive Weather Map New forecast layout! Learn more

10-Day Weather Forecast

Advertisements
Track Severe Weather on mobile